Tangier, Indiana
Current Conditions -  °F | °C
As of 7:15 AM on Friday 24 Oct 2014 (Local Time) from KDNV Reporting Station
Overcast Overcast  
Wind Chill: 48°   Ceiling: 2600
Heat Index: 48°   Visibility: 7mi
Dew Point: 47°   Wind: 3mph
Humidity: 95%   Direction: 180°S
Pressure: 30.07"   Gusts: NA
Location:  39.9707°N, 87.3162°W
Report Text: KDNV 241115Z AUTO 18003KT 7SM OVC026 09/08 A3007 RMK AO2 T00900082
Loading
Personal Weather Stations






























Interactive Weather Map
Tropical Storm Tracking
New forecast layout! Learn more

10-Day Weather Forecast

Advertisements
Track Severe Weather on mobile